This is the latest recevied weather packets stored in our database for station/object K4PAD. If no packets are shown the sender has not sent any weather packets the latest 1 day(s).
| Time | Temp. | Humidity | Pressure | Rain* | Wind** | Luminosity | Snow |
|---|---|---|---|---|---|---|---|
| 1778097235 | 33.33° C | 40% | 1016 hPa | 0 mm | - | 775 W/m² | - |
| 1778096326 | 33.89° C | 38% | 1016.2 hPa | 0 mm | - | 887 W/m² | - |
| 1778094506 | 33.33° C | 40% | 1016.7 hPa | 0 mm | - | 781 W/m² | - |
| 1778092383 | 32.22° C | 42% | 1017 hPa | 0 mm | - | 956 W/m² | - |
| 1778091475 | 33.33° C | 41% | 1017.2 hPa | 0 mm | - | 982 W/m² | - |
| 1778090565 | 31.67° C | 43% | 1017.6 hPa | 0 mm | - | 998 W/m² | - |
| 1778089959 | 32.78° C | 43% | 1017.3 hPa | 0 mm | - | 1038 W/m² | - |
| 1778089353 | 31.67° C | 46% | 1017.5 hPa | 0 mm | - | 1017 W/m² | - |
| 1778088141 | 32.22° C | 46% | 1018 hPa | 0 mm | - | 910 W/m² | - |
| 1778087536 | 31.11° C | 48% | 1017.9 hPa | 0 mm | - | 894 W/m² | - |
| 1778086930 | 30.56° C | 48% | 1018.4 hPa | 0 mm | - | 861 W/m² | - |
| 1778086022 | 30.56° C | 48% | 1018.3 hPa | 0 mm | - | 714 W/m² | - |
| 1778084807 | 30° C | 51% | 1018.5 hPa | 0 mm | - | 778 W/m² | - |
| 1778083596 | 29.44° C | 51% | 1018.9 hPa | 0 mm | - | 892 W/m² | - |
| 1778081242 | 28.89° C | 56% | 1018.7 hPa | 0 mm | - | 919 W/m² | - |
| 1778079728 | 27.78° C | 59% | 1018.8 hPa | 0 mm | - | 718 W/m² | - |
| 1778079425 | 27.22° C | 60% | 1018.6 hPa | 0 mm | - | 600 W/m² | - |
| 1778079121 | 27.22° C | 61% | 1018.5 hPa | 0 mm | - | 776 W/m² | - |
| 1778078515 | 26.67° C | 62% | 1018.3 hPa | 0 mm | - | 570 W/m² | - |
| 1778077911 | 26.67° C | 63% | 1018.5 hPa | 0 mm | - | 666 W/m² | - |
| 1778076097 | 25° C | 68% | 1018.5 hPa | 0 mm | - | 607 W/m² | - |
| 1778075794 | 25° C | 68% | 1018.4 hPa | 0 mm | - | 588 W/m² | - |
| 1778075490 | 25° C | 68% | 1018.6 hPa | 0 mm | - | 533 W/m² | - |
| 1778075187 | 25° C | 69% | 1018.6 hPa | 0 mm | - | 502 W/m² | - |
| 1778074580 | 24.44° C | 70% | 1018.7 hPa | 0 mm | - | 451 W/m² | - |
* Rain latest hour (hover to see other rain measurements)
** Current wind speed in m/s (hover to see current wind gust speed)